Brooklyn, New York
Current Conditions -  °F | °C
As of 2:51 AM on Monday 22 Dec 2014 (Local Time) from KJFK Reporting Station
Overcast Overcast  
Wind Chill:   Ceiling: 1100
Heat Index:   Visibility: 10mi
Dew Point:   Wind: 6mph
Humidity: 79%   Direction: 10°N
Pressure: 30.34"   Gusts: NA
Location:  40.64°N, 73.96°W
Report Text: KJFK 220751Z 01005KT 10SM OVC011 03/00 A3034 RMK AO2 SLP275 T00330000 $
Loading
Personal Weather Stations






























Interactive Weather Map New forecast layout! Learn more

10-Day Weather Forecast

Advertisements
Track Severe Weather on mobile